Time;durP1;ratioP1;P1;durP2;ratioP2;P2;SDS_P1;SDS_P2;PMS_P1;PMS_P2;Temp;Humidity;BMP_temperature;BMP_pressure;BME280_temperature;BME280_humidity;BME280_pressure;Samples;Min_cycle;Max_cycle;Signal;HPM_P1;HPM_P2
2022/07/09 00:00:11;;;;;;;;;;;17.00;99.90;;;;;;5069912;28;20019;-75
2022/07/09 00:02:36;;;;;;;;;;;17.00;99.90;;;;;;5055607;28;19932;-75
2022/07/09 00:05:02;;;;;;;;;;;17.00;99.90;;;;;;5050099;28;19929;-75
2022/07/09 00:07:28;;;;;;;;;;;17.00;99.90;;;;;;5063722;28;20007;-75
2022/07/09 00:09:53;;;;;;;;;;;17.10;99.90;;;;;;5057738;28;19947;-75
2022/07/09 00:12:19;;;;;;;;;;;17.10;99.90;;;;;;5051648;28;19924;-75
2022/07/09 00:14:45;;;;;;;;;;;17.00;99.90;;;;;;5062214;28;19932;-74
2022/07/09 00:17:10;;;;;;;;;;;17.10;99.90;;;;;;5032811;28;20057;-73
2022/07/09 00:19:36;;;;;;;;;;;17.10;99.90;;;;;;5069823;28;19924;-73
2022/07/09 00:22:02;;;;;;;;;;;17.10;99.90;;;;;;5055899;28;20311;-73
2022/07/09 00:24:27;;;;;;;;;;;17.10;99.90;;;;;;5069200;28;19947;-73
2022/07/09 00:26:53;;;;;;;;;;;17.10;99.90;;;;;;5069127;28;19925;-73
2022/07/09 00:29:18;;;;;;;;;;;17.10;99.90;;;;;;5069538;28;19974;-73
2022/07/09 00:31:45;;;;;;;;;;;17.20;99.90;;;;;;5069181;28;19924;-73
2022/07/09 00:34:11;;;;;;;;;;;17.20;99.90;;;;;;5049315;28;19926;-73
2022/07/09 00:36:37;;;;;;;;;;;17.30;99.90;;;;;;5063355;28;19925;-73
2022/07/09 00:39:02;;;;;;;;;;;17.30;99.90;;;;;;5069456;28;19932;-73
2022/07/09 00:41:28;;;;;;;;;;;17.30;99.90;;;;;;5069150;28;19924;-73
2022/07/09 00:43:53;;;;;;;;;;;17.30;99.90;;;;;;5049584;28;19932;-73
2022/07/09 00:46:19;;;;;;;;;;;17.30;99.90;;;;;;5049447;28;19925;-73
2022/07/09 00:48:44;;;;;;;;;;;17.20;99.90;;;;;;5050119;28;19985;-73
2022/07/09 00:51:11;;;;;;;;;;;17.20;99.90;;;;;;5062697;28;19925;-73
2022/07/09 00:53:37;;;;;;;;;;;17.20;99.90;;;;;;5068946;28;19925;-73
2022/07/09 00:56:03;;;;;;;;;;;17.20;99.90;;;;;;5063488;28;19950;-74
2022/07/09 00:58:29;;;;;;;;;;;17.20;99.90;;;;;;5068646;28;20025;-73
2022/07/09 01:00:54;;;;;;;;;;;17.20;99.90;;;;;;5057656;28;20390;-73
2022/07/09 01:03:20;;;;;;;;;;;17.20;99.90;;;;;;5066685;28;19935;-73
2022/07/09 01:05:46;;;;;;;;;;;17.20;99.90;;;;;;5068409;28;19933;-73
2022/07/09 01:08:11;;;;;;;;;;;17.20;99.90;;;;;;5069387;28;20424;-73
2022/07/09 01:10:37;;;;;;;;;;;17.20;99.90;;;;;;5068367;28;20019;-73
2022/07/09 01:13:03;;;;;;;;;;;17.20;99.90;;;;;;5068876;28;19925;-73
2022/07/09 01:15:29;;;;;;;;;;;17.20;99.90;;;;;;5051063;28;20009;-73
2022/07/09 01:17:55;;;;;;;;;;;17.20;99.90;;;;;;5069029;28;20011;-73
2022/07/09 01:20:21;;;;;;;;;;;17.10;99.90;;;;;;5069197;28;19968;-73
2022/07/09 01:22:47;;;;;;;;;;;17.10;99.90;;;;;;5059428;28;20365;-73
2022/07/09 01:25:15;;;;;;;;;;;17.10;99.90;;;;;;5059958;28;19929;-73
2022/07/09 01:27:41;;;;;;;;;;;17.10;99.90;;;;;;5072130;28;19932;-74
2022/07/09 01:30:07;;;;;;;;;;;17.00;99.90;;;;;;5072482;28;20013;-73
2022/07/09 01:32:32;;;;;;;;;;;17.00;99.90;;;;;;5072610;28;19931;-73
2022/07/09 01:34:58;;;;;;;;;;;17.00;99.90;;;;;;5072315;28;19925;-73
2022/07/09 01:37:23;;;;;;;;;;;17.00;99.90;;;;;;5072692;28;20442;-73
2022/07/09 01:39:51;;;;;;;;;;;16.90;99.90;;;;;;5072079;28;19924;-73
2022/07/09 01:42:17;;;;;;;;;;;16.90;99.90;;;;;;5072536;28;20344;-73
2022/07/09 01:44:44;;;;;;;;;;;16.90;99.90;;;;;;5034985;28;19971;-73
2022/07/09 01:47:09;;;;;;;;;;;17.00;99.90;;;;;;5052717;28;19925;-73
2022/07/09 01:49:35;;;;;;;;;;;17.00;99.90;;;;;;5071014;28;19986;-73
2022/07/09 01:52:00;;;;;;;;;;;17.00;99.90;;;;;;5072119;28;19946;-73
2022/07/09 01:54:26;;;;;;;;;;;17.00;99.90;;;;;;5071772;28;19924;-72
2022/07/09 01:56:51;;;;;;;;;;;17.00;99.90;;;;;;5071816;28;19925;-73
2022/07/09 01:59:17;;;;;;;;;;;17.00;99.90;;;;;;5071525;28;19929;-73
2022/07/09 02:01:42;;;;;;;;;;;17.00;99.90;;;;;;5072410;28;20294;-73
2022/07/09 02:04:08;;;;;;;;;;;17.00;99.90;;;;;;5067000;28;20371;-73
2022/07/09 02:06:33;;;;;;;;;;;17.00;99.90;;;;;;5064311;28;19925;-73
2022/07/09 02:08:59;;;;;;;;;;;16.90;99.90;;;;;;5053672;28;19983;-73
2022/07/09 02:11:24;;;;;;;;;;;16.90;99.90;;;;;;5051758;28;20360;-73
2022/07/09 02:13:50;;;;;;;;;;;16.90;99.90;;;;;;5065699;28;19936;-73
2022/07/09 02:16:15;;;;;;;;;;;16.90;99.90;;;;;;5052169;28;19932;-73
2022/07/09 02:18:41;;;;;;;;;;;16.90;99.90;;;;;;5070218;28;19932;-73
2022/07/09 02:21:07;;;;;;;;;;;17.00;99.90;;;;;;5071716;28;19924;-73
2022/07/09 02:23:32;;;;;;;;;;;16.90;99.90;;;;;;5053241;28;20367;-73
2022/07/09 02:25:58;;;;;;;;;;;16.90;99.90;;;;;;5063350;28;19931;-73
2022/07/09 02:28:23;;;;;;;;;;;17.00;99.90;;;;;;5066490;28;19924;-74
2022/07/09 02:30:49;;;;;;;;;;;16.90;99.90;;;;;;5063391;28;20282;-73
2022/07/09 02:33:14;;;;;;;;;;;17.00;99.90;;;;;;5070666;28;19925;-73
2022/07/09 02:35:40;;;;;;;;;;;16.90;99.90;;;;;;5071306;28;19928;-73
2022/07/09 02:38:05;;;;;;;;;;;17.00;99.90;;;;;;5071029;28;19936;-73
2022/07/09 02:40:31;;;;;;;;;;;16.90;99.90;;;;;;5071261;28;20011;-73
2022/07/09 02:42:56;;;;;;;;;;;16.90;99.90;;;;;;5070972;28;20414;-72
2022/07/09 02:45:22;;;;;;;;;;;16.90;99.90;;;;;;5071035;28;20015;-73
2022/07/09 02:47:47;;;;;;;;;;;16.90;99.90;;;;;;5070909;28;19929;-73
2022/07/09 02:50:13;;;;;;;;;;;16.90;99.90;;;;;;5070932;28;19928;-73
2022/07/09 02:52:38;;;;;;;;;;;16.90;99.90;;;;;;5070793;28;19971;-73
2022/07/09 02:55:04;;;;;;;;;;;16.80;99.90;;;;;;5070955;28;19924;-73
2022/07/09 02:57:30;;;;;;;;;;;16.90;99.90;;;;;;5070776;28;20356;-73
2022/07/09 02:59:55;;;;;;;;;;;16.90;99.90;;;;;;5059954;28;19952;-73
2022/07/09 03:02:21;;;;;;;;;;;16.80;99.90;;;;;;5068774;28;20007;-73
2022/07/09 03:04:46;;;;;;;;;;;16.70;99.90;;;;;;5060918;28;19928;-73
2022/07/09 03:07:13;;;;;;;;;;;16.70;99.90;;;;;;5067261;28;19924;-73
2022/07/09 03:09:39;;;;;;;;;;;16.70;99.90;;;;;;5070750;28;19928;-73
2022/07/09 03:12:05;;;;;;;;;;;16.70;99.90;;;;;;5070063;28;19931;-73
2022/07/09 03:14:30;;;;;;;;;;;16.70;99.90;;;;;;5052404;28;19924;-73
2022/07/09 03:16:56;;;;;;;;;;;16.70;99.90;;;;;;5069797;28;19929;-73
2022/07/09 03:19:21;;;;;;;;;;;16.60;99.90;;;;;;5070054;28;19924;-73
2022/07/09 03:21:48;;;;;;;;;;;16.60;99.90;;;;;;5070145;28;20307;-73
2022/07/09 03:24:13;;;;;;;;;;;16.60;99.90;;;;;;5070443;28;19928;-73
2022/07/09 03:26:39;;;;;;;;;;;16.60;99.90;;;;;;5070429;28;20600;-73
2022/07/09 03:29:04;;;;;;;;;;;16.60;99.90;;;;;;5061007;28;19924;-73
2022/07/09 03:31:30;;;;;;;;;;;16.60;99.90;;;;;;5066599;28;19981;-73
2022/07/09 03:33:55;;;;;;;;;;;16.60;99.90;;;;;;5070517;28;19931;-73
2022/07/09 03:36:21;;;;;;;;;;;16.60;99.90;;;;;;5069952;28;20015;-73
2022/07/09 03:38:46;;;;;;;;;;;16.50;99.90;;;;;;5070027;28;19980;-73
2022/07/09 03:41:12;;;;;;;;;;;16.60;99.90;;;;;;5069741;28;20321;-73
2022/07/09 03:43:37;;;;;;;;;;;16.50;99.90;;;;;;5069601;28;19924;-74
2022/07/09 03:46:04;;;;;;;;;;;16.50;99.90;;;;;;5055156;28;19932;-74
2022/07/09 03:48:29;;;;;;;;;;;16.50;99.90;;;;;;5050519;28;20314;-74
2022/07/09 03:50:55;;;;;;;;;;;16.60;99.90;;;;;;5066540;28;19931;-74
2022/07/09 03:53:21;;;;;;;;;;;16.60;99.90;;;;;;5070299;28;19924;-74
2022/07/09 03:55:46;;;;;;;;;;;16.60;99.90;;;;;;5057404;28;19948;-74
2022/07/09 03:58:12;;;;;;;;;;;16.60;99.90;;;;;;5060741;28;19925;-74
2022/07/09 04:00:37;;;;;;;;;;;16.60;99.90;;;;;;5066039;28;19932;-74
2022/07/09 04:03:03;;;;;;;;;;;16.70;99.90;;;;;;5069175;28;20358;-74
2022/07/09 04:05:28;;;;;;;;;;;16.60;99.90;;;;;;5056339;28;19924;-74
2022/07/09 04:07:54;;;;;;;;;;;16.60;99.90;;;;;;5069451;28;19960;-73
2022/07/09 04:10:20;;;;;;;;;;;16.70;99.90;;;;;;5067835;28;19971;-74
2022/07/09 04:12:45;;;;;;;;;;;16.60;99.90;;;;;;5050446;28;19929;-74
2022/07/09 04:15:11;;;;;;;;;;;16.70;99.90;;;;;;5065802;28;20012;-74
2022/07/09 04:17:36;;;;;;;;;;;16.70;99.90;;;;;;5069544;28;20011;-74
2022/07/09 04:20:02;;;;;;;;;;;16.70;99.90;;;;;;5069606;28;19971;-74
2022/07/09 04:22:27;;;;;;;;;;;16.70;99.90;;;;;;5061267;28;19971;-74
2022/07/09 04:24:53;;;;;;;;;;;16.70;99.90;;;;;;5065299;28;20052;-74
2022/07/09 04:27:18;;;;;;;;;;;16.70;99.90;;;;;;5043053;28;19925;-74
2022/07/09 04:29:44;;;;;;;;;;;16.70;99.90;;;;;;5064211;28;20311;-74
2022/07/09 04:32:09;;;;;;;;;;;16.70;99.90;;;;;;5050679;28;19929;-73
2022/07/09 04:34:35;;;;;;;;;;;16.80;99.90;;;;;;5052950;28;19924;-74
2022/07/09 04:37:00;;;;;;;;;;;16.80;99.90;;;;;;5069740;28;19951;-74
2022/07/09 04:39:27;;;;;;;;;;;16.80;99.90;;;;;;5069578;28;19924;-74
2022/07/09 04:41:52;;;;;;;;;;;16.90;99.90;;;;;;5069774;28;19925;-74
2022/07/09 04:44:18;;;;;;;;;;;16.80;99.90;;;;;;5069018;28;20015;-73
2022/07/09 04:46:43;;;;;;;;;;;16.90;99.90;;;;;;5060875;28;20468;-74
2022/07/09 04:49:09;;;;;;;;;;;16.90;99.90;;;;;;5065546;28;20337;-74
2022/07/09 04:51:35;;;;;;;;;;;17.00;99.90;;;;;;5069319;28;19925;-73
2022/07/09 04:54:00;;;;;;;;;;;17.00;99.90;;;;;;5069282;28;19947;-74
2022/07/09 04:56:26;;;;;;;;;;;17.00;99.90;;;;;;5064318;28;20724;-74
2022/07/09 04:58:51;;;;;;;;;;;17.10;99.90;;;;;;5057168;28;19924;-74
2022/07/09 05:01:20;;;;;;;;;;;17.10;99.90;;;;;;5072942;28;19940;-72
2022/07/09 05:03:46;;;;;;;;;;;17.10;99.90;;;;;;5067699;28;19931;-73
2022/07/09 05:06:16;;;;;;;;;;;17.10;99.90;;;;;;5064242;28;19929;-73
2022/07/09 05:08:41;;;;;;;;;;;17.10;99.90;;;;;;5066267;28;19928;-73
2022/07/09 05:11:07;;;;;;;;;;;17.10;99.90;;;;;;5061836;28;19931;-73
2022/07/09 05:13:33;;;;;;;;;;;17.20;99.90;;;;;;5059322;28;19925;-73
2022/07/09 05:15:58;;;;;;;;;;;17.20;99.90;;;;;;5073099;28;19932;-73
2022/07/09 05:18:24;;;;;;;;;;;17.20;99.90;;;;;;5057164;28;19925;-74
2022/07/09 05:20:49;;;;;;;;;;;17.30;99.90;;;;;;5053314;28;19925;-73
2022/07/09 05:23:15;;;;;;;;;;;17.30;99.90;;;;;;5054957;28;19925;-74
2022/07/09 05:25:40;;;;;;;;;;;17.30;99.90;;;;;;5072982;28;19936;-74
2022/07/09 05:28:06;;;;;;;;;;;17.30;99.90;;;;;;5059427;28;19986;-74
2022/07/09 05:30:36;;;;;;;;;;;17.30;99.90;;;;;;5072531;28;19978;-74
2022/07/09 05:33:05;;;;;;;;;;;17.30;99.90;;;;;;5072395;28;19940;-74
2022/07/09 05:35:31;;;;;;;;;;;17.30;99.90;;;;;;5054812;28;19924;-74
2022/07/09 05:37:56;;;;;;;;;;;17.30;99.90;;;;;;5071848;28;19990;-74
2022/07/09 05:40:22;;;;;;;;;;;17.30;99.90;;;;;;5072126;28;20409;-73
2022/07/09 05:42:47;;;;;;;;;;;17.40;99.90;;;;;;5069933;28;19925;-74
2022/07/09 05:45:13;;;;;;;;;;;17.40;99.90;;;;;;5062639;28;19946;-74
2022/07/09 05:47:39;;;;;;;;;;;17.40;99.90;;;;;;5072390;28;19929;-74
2022/07/09 05:50:04;;;;;;;;;;;17.50;99.90;;;;;;5072326;28;20290;-73
2022/07/09 05:52:30;;;;;;;;;;;17.50;99.90;;;;;;5060192;28;20007;-74
2022/07/09 05:54:56;;;;;;;;;;;17.50;99.90;;;;;;5072393;28;19970;-74
2022/07/09 05:57:21;;;;;;;;;;;17.50;99.90;;;;;;5071909;28;20290;-74
2022/07/09 05:59:47;;;;;;;;;;;17.50;99.90;;;;;;5071927;28;19928;-73
2022/07/09 06:02:12;;;;;;;;;;;17.50;99.90;;;;;;5069788;28;19924;-73
2022/07/09 06:04:38;;;;;;;;;;;17.50;99.90;;;;;;5069204;28;19924;-73
2022/07/09 06:07:03;;;;;;;;;;;17.60;99.90;;;;;;5056489;28;19948;-74
2022/07/09 06:09:29;;;;;;;;;;;17.60;99.90;;;;;;5060581;28;19935;-73
2022/07/09 06:11:54;;;;;;;;;;;17.60;99.90;;;;;;5071664;28;19925;-74
2022/07/09 06:14:20;;;;;;;;;;;17.70;99.90;;;;;;5071923;28;20086;-74
2022/07/09 06:16:46;;;;;;;;;;;17.70;99.90;;;;;;5071622;28;20025;-74
2022/07/09 06:19:12;;;;;;;;;;;17.80;99.90;;;;;;5071560;28;19970;-73
2022/07/09 06:21:38;;;;;;;;;;;17.90;99.90;;;;;;5071183;28;19968;-74
2022/07/09 06:24:04;;;;;;;;;;;18.00;99.90;;;;;;5053229;28;19947;-74
2022/07/09 06:26:30;;;;;;;;;;;18.00;99.90;;;;;;5052832;28;19924;-74
2022/07/09 06:28:55;;;;;;;;;;;18.00;99.90;;;;;;5071430;28;19928;-74
2022/07/09 06:31:21;;;;;;;;;;;18.10;99.90;;;;;;5070632;28;20313;-74
2022/07/09 06:33:47;;;;;;;;;;;18.10;99.90;;;;;;5071125;28;19928;-74
2022/07/09 06:36:12;;;;;;;;;;;18.00;99.90;;;;;;5071084;28;20412;-74
2022/07/09 06:39:44;;;;;;;;;;;18.00;99.90;;;;;;5071085;28;19978;-73
2022/07/09 06:41:23;;;;;;;;;;;18.00;99.90;;;;;;5070553;28;19924;-74
2022/07/09 06:43:49;;;;;;;;;;;18.00;99.90;;;;;;5071649;28;20416;-74
2022/07/09 06:46:14;;;;;;;;;;;18.10;99.90;;;;;;5070963;28;19930;-74
2022/07/09 06:48:40;;;;;;;;;;;18.10;99.90;;;;;;5070477;28;20417;-74
2022/07/09 06:51:05;;;;;;;;;;;18.10;99.90;;;;;;5071185;28;19924;-74
2022/07/09 06:53:31;;;;;;;;;;;18.10;99.90;;;;;;5070615;28;20382;-74
2022/07/09 06:55:56;;;;;;;;;;;18.10;99.90;;;;;;5071063;28;19924;-73
2022/07/09 06:58:22;;;;;;;;;;;18.10;99.90;;;;;;5071292;28;19932;-74
2022/07/09 07:00:47;;;;;;;;;;;18.10;99.90;;;;;;5070337;28;19928;-74
2022/07/09 07:03:13;;;;;;;;;;;18.20;99.90;;;;;;5070024;28;19924;-74
2022/07/09 07:05:38;;;;;;;;;;;18.30;99.90;;;;;;5053688;28;19998;-74
2022/07/09 07:08:04;;;;;;;;;;;18.50;99.90;;;;;;5061782;28;20015;-73
2022/07/09 07:10:29;;;;;;;;;;;18.60;99.90;;;;;;5053404;28;20384;-74
2022/07/09 07:12:55;;;;;;;;;;;18.70;99.90;;;;;;5050998;28;19925;-74
2022/07/09 07:15:21;;;;;;;;;;;18.70;99.90;;;;;;5064085;28;19925;-74
2022/07/09 07:17:48;;;;;;;;;;;18.80;99.90;;;;;;5050423;28;19928;-74
2022/07/09 07:20:14;;;;;;;;;;;18.90;99.90;;;;;;5063274;28;19932;-74
2022/07/09 07:22:40;;;;;;;;;;;19.00;99.90;;;;;;5050888;28;19955;-74
2022/07/09 07:25:05;;;;;;;;;;;19.00;99.90;;;;;;5063901;28;19929;-74
2022/07/09 07:27:31;;;;;;;;;;;19.10;99.90;;;;;;5050693;28;20643;-74
2022/07/09 07:29:56;;;;;;;;;;;19.10;99.90;;;;;;5068086;28;19982;-74
2022/07/09 07:32:22;;;;;;;;;;;19.10;99.90;;;;;;5052240;28;19978;-74
2022/07/09 07:34:47;;;;;;;;;;;19.20;99.90;;;;;;5066510;28;19931;-74
2022/07/09 07:37:13;;;;;;;;;;;19.20;99.90;;;;;;5050460;28;19932;-74
2022/07/09 07:39:38;;;;;;;;;;;19.20;99.90;;;;;;5054092;28;19925;-74
2022/07/09 07:42:06;;;;;;;;;;;19.20;99.90;;;;;;5059850;28;20488;-74
2022/07/09 07:44:32;;;;;;;;;;;19.20;99.90;;;;;;5063441;28;20521;-74
2022/07/09 07:46:57;;;;;;;;;;;19.20;99.90;;;;;;5061305;28;20019;-73
2022/07/09 07:49:23;;;;;;;;;;;19.20;99.90;;;;;;5066210;28;19933;-74
2022/07/09 07:51:48;;;;;;;;;;;19.20;99.90;;;;;;5050844;28;19924;-74
2022/07/09 07:54:14;;;;;;;;;;;19.10;99.90;;;;;;5054766;28;20394;-74
2022/07/09 07:56:40;;;;;;;;;;;19.10;99.90;;;;;;5070156;28;19932;-74
2022/07/09 07:59:05;;;;;;;;;;;19.20;99.90;;;;;;5057302;28;19925;-74
2022/07/09 08:01:31;;;;;;;;;;;19.30;99.90;;;;;;5059536;28;19925;-74
2022/07/09 08:03:56;;;;;;;;;;;19.40;99.90;;;;;;5057502;28;19928;-74
2022/07/09 08:06:22;;;;;;;;;;;19.40;99.90;;;;;;5069569;28;19925;-73
2022/07/09 08:08:47;;;;;;;;;;;19.40;99.90;;;;;;5069589;28;20395;-74
2022/07/09 08:11:14;;;;;;;;;;;19.40;99.90;;;;;;5068824;28;19925;-74
2022/07/09 08:13:39;;;;;;;;;;;19.30;99.90;;;;;;5060888;28;20310;-75
2022/07/09 08:16:05;;;;;;;;;;;19.30;99.90;;;;;;5048715;28;19963;-75
2022/07/09 08:18:31;;;;;;;;;;;19.30;99.90;;;;;;5062097;28;19931;-75
2022/07/09 08:20:56;;;;;;;;;;;19.40;99.90;;;;;;5057747;28;20391;-75
2022/07/09 08:23:22;;;;;;;;;;;19.40;99.90;;;;;;5053134;28;19924;-74
2022/07/09 08:25:47;;;;;;;;;;;19.60;99.90;;;;;;5059366;28;20011;-74
2022/07/09 08:28:13;;;;;;;;;;;19.80;99.90;;;;;;5063553;28;20047;-75
2022/07/09 08:30:38;;;;;;;;;;;20.10;99.90;;;;;;5056645;28;19928;-75
2022/07/09 08:33:04;;;;;;;;;;;20.20;99.90;;;;;;5065991;28;20448;-74
2022/07/09 08:35:30;;;;;;;;;;;20.30;99.90;;;;;;5063499;28;20011;-73
2022/07/09 08:37:55;;;;;;;;;;;20.40;99.90;;;;;;5066214;28;20011;-76
2022/07/09 08:40:21;;;;;;;;;;;20.40;99.90;;;;;;5062823;28;20302;-74
2022/07/09 08:42:47;;;;;;;;;;;20.40;99.90;;;;;;5067637;28;20008;-75
2022/07/09 08:45:14;;;;;;;;;;;20.30;99.90;;;;;;5055082;28;20345;-74
2022/07/09 08:47:40;;;;;;;;;;;20.30;99.90;;;;;;5064859;28;19935;-75
2022/07/09 08:50:06;;;;;;;;;;;20.40;99.90;;;;;;5069714;28;19925;-74
2022/07/09 08:52:32;;;;;;;;;;;20.40;99.90;;;;;;5069141;28;20302;-75
2022/07/09 08:54:58;;;;;;;;;;;20.30;99.90;;;;;;5069096;28;19925;-74
2022/07/09 08:57:23;;;;;;;;;;;20.20;99.90;;;;;;5068867;28;19924;-74
2022/07/09 08:59:49;;;;;;;;;;;20.10;99.90;;;;;;5069710;28;19991;-74
2022/07/09 09:02:14;;;;;;;;;;;20.10;99.90;;;;;;5067191;28;19977;-75
2022/07/09 09:04:40;;;;;;;;;;;20.20;99.90;;;;;;5065175;28;19982;-75
2022/07/09 09:07:15;;;;;;;;;;;20.30;99.90;;;;;;5059064;28;20082;-75
2022/07/09 09:09:41;;;;;;;;;;;20.40;99.90;;;;;;5068645;28;19932;-75
2022/07/09 09:12:07;;;;;;;;;;;20.50;99.90;;;;;;5066099;28;19925;-74
2022/07/09 09:14:34;;;;;;;;;;;20.70;99.90;;;;;;5068765;28;20070;-75
2022/07/09 09:17:09;;;;;;;;;;;20.70;99.90;;;;;;5065470;28;20173;-75
2022/07/09 09:19:34;;;;;;;;;;;20.70;99.90;;;;;;5050026;28;19924;-75
2022/07/09 09:22:00;;;;;;;;;;;20.70;99.90;;;;;;5066997;28;20323;-75
2022/07/09 09:24:26;;;;;;;;;;;20.80;99.90;;;;;;5068920;28;19924;-74
2022/07/09 09:26:55;;;;;;;;;;;20.90;99.90;;;;;;5064171;28;20087;-74
2022/07/09 09:29:21;;;;;;;;;;;21.00;99.90;;;;;;5069083;28;19929;-75
2022/07/09 09:31:46;;;;;;;;;;;21.10;99.90;;;;;;5064115;28;19935;-74
2022/07/09 09:34:12;;;;;;;;;;;21.10;99.90;;;;;;5067975;28;19929;-74
2022/07/09 09:36:39;;;;;;;;;;;21.10;99.90;;;;;;5067259;28;20023;-75
2022/07/09 09:39:10;;;;;;;;;;;21.20;99.90;;;;;;5067844;28;19924;-74
2022/07/09 09:41:36;;;;;;;;;;;21.30;99.90;;;;;;5068145;28;19924;-75
2022/07/09 09:44:04;;;;;;;;;;;21.30;99.90;;;;;;5069051;28;20294;-75
2022/07/09 09:46:32;;;;;;;;;;;21.30;99.90;;;;;;5050846;28;19935;-74
2022/07/09 09:48:58;;;;;;;;;;;21.40;99.90;;;;;;5069205;28;19960;-74
2022/07/09 09:51:24;;;;;;;;;;;21.30;99.90;;;;;;5072226;28;20503;-73
2022/07/09 09:53:50;;;;;;;;;;;21.30;99.90;;;;;;5071667;28;19963;-74
2022/07/09 09:56:15;;;;;;;;;;;21.30;99.90;;;;;;5072418;28;20017;-74
2022/07/09 09:58:41;;;;;;;;;;;21.40;99.90;;;;;;5052181;28;19986;-74
2022/07/09 10:01:07;;;;;;;;;;;21.60;99.90;;;;;;5068700;28;19925;-74
2022/07/09 10:03:33;;;;;;;;;;;21.80;99.90;;;;;;5066960;28;20011;-74
2022/07/09 10:05:59;;;;;;;5.93;0.82;;;22.20;99.90;;;;;;5071975;28;20070;-74
2022/07/09 10:08:25;;;;;;;4.15;0.93;;;22.60;99.90;;;;;;5069003;28;20415;-74
2022/07/09 10:10:51;;;;;;;5.70;1.10;;;22.60;99.90;;;;;;5070266;28;20400;-73
2022/07/09 10:13:21;;;;;;;6.30;1.17;;;22.30;99.90;;;;;;5067935;28;20436;-73
2022/07/09 10:15:48;;;;;;;6.72;1.30;;;22.10;99.90;;;;;;5057792;28;20400;-73
2022/07/09 10:18:17;;;;;;;4.85;0.85;;;21.90;99.90;;;;;;5069004;28;20430;-74
2022/07/09 10:20:43;;;;;;;4.90;1.20;;;22.00;99.90;;;;;;5069084;28;20423;-73
2022/07/09 10:23:23;;;;;;;4.13;0.88;;;21.80;99.90;;;;;;5067634;28;20508;-74
2022/07/09 10:25:55;;;;;;;4.17;0.70;;;21.50;99.90;;;;;;5069687;28;20400;-74
2022/07/09 10:28:22;;;;;;;8.93;1.20;;;21.10;99.90;;;;;;5068738;28;20423;-73
2022/07/09 10:30:48;;;;;;;8.60;1.40;;;21.00;99.90;;;;;;5063407;28;20429;-74
2022/07/09 10:33:35;;;;;;;5.43;1.05;;;20.90;99.90;;;;;;5054459;28;20494;-74
2022/07/09 10:36:14;;;;;;;8.43;1.10;;;20.60;99.90;;;;;;5069736;28;20486;-74
2022/07/09 10:38:39;;;;;;;7.32;1.25;;;20.40;99.90;;;;;;5068380;28;20929;-75
2022/07/09 10:41:05;;;;;;;6.57;1.33;;;20.40;99.90;;;;;;5067473;28;20512;-74
2022/07/09 10:43:49;;;;;;;8.50;1.40;;;20.30;99.90;;;;;;5058088;28;20543;-74
2022/07/09 10:46:16;;;;;;;6.95;1.20;;;20.20;99.90;;;;;;5069399;28;20905;-74
2022/07/09 10:48:44;;;;;;;5.13;0.98;;;20.20;99.90;;;;;;5049142;28;20795;-73
2022/07/09 10:51:19;;;;;;;6.10;1.30;;;20.20;99.90;;;;;;5048866;28;20805;-73
2022/07/09 10:53:46;;;;;;;7.20;1.27;;;20.30;99.90;;;;;;5051988;28;20851;-73
2022/07/09 10:56:19;;;;;;;5.18;0.98;;;20.30;99.90;;;;;;5053475;28;20745;-74
2022/07/09 10:58:49;;;;;;;7.15;1.42;;;20.40;99.90;;;;;;5051800;28;20426;-74
2022/07/09 11:01:24;;;;;;;8.60;1.45;;;20.60;99.90;;;;;;5049271;28;20406;-74
2022/07/09 11:03:51;;;;;;;5.43;1.10;;;20.80;99.90;;;;;;5058051;28;20407;-74
2022/07/09 11:06:17;;;;;;;7.63;1.25;;;21.00;99.90;;;;;;5055169;28;20463;-74
2022/07/09 11:08:42;;;;;;;7.85;1.00;;;21.20;99.90;;;;;;5035085;28;20978;-74
2022/07/09 11:11:08;;;;;;;6.67;1.00;;;21.40;99.90;;;;;;5048430;28;20402;-74
2022/07/09 11:13:34;;;;;;;6.25;1.00;;;21.40;99.90;;;;;;5063491;28;20439;-74
2022/07/09 11:16:00;;;;;;;4.38;0.80;;;21.50;99.90;;;;;;5053881;28;20436;-74
2022/07/09 11:18:27;;;;;;;4.93;0.60;;;21.80;99.90;;;;;;5056583;28;20430;-74
2022/07/09 11:20:53;;;;;;;5.68;0.88;;;22.30;99.90;;;;;;5052989;28;20455;-74
2022/07/09 11:23:18;;;;;;;4.60;0.80;;;22.60;99.90;;;;;;5060842;28;20457;-74
2022/07/09 11:25:46;;;;;;;5.40;0.70;;;22.70;99.90;;;;;;5061438;28;20411;-74
2022/07/09 11:28:22;;;;;;;6.07;0.80;;;22.80;99.10;;;;;;5059382;28;20860;-74
2022/07/09 11:31:05;;;;;;;5.57;0.60;;;22.80;98.30;;;;;;5059441;28;20412;-74
2022/07/09 11:36:18;;;;;;;5.93;0.70;;;22.90;97.40;;;;;;5066246;28;20417;-74
2022/07/09 11:38:48;;;;;;;5.65;0.80;;;23.20;97.10;;;;;;5065133;28;20423;-74
2022/07/09 11:41:14;;;;;;;2.55;0.60;;;23.60;96.20;;;;;;5067775;28;20123;-74
2022/07/09 11:43:46;;;;;;;4.50;0.57;;;23.70;94.60;;;;;;5060795;28;20498;-74
2022/07/09 11:46:16;;;;;;;4.57;0.73;;;23.70;95.30;;;;;;5066403;28;20415;-74
2022/07/09 11:48:52;;;;;;;3.88;0.50;;;23.70;94.80;;;;;;5066959;28;20502;-74
2022/07/09 11:51:31;;;;;;;5.20;0.70;;;23.70;94.90;;;;;;5067038;28;20416;-74
2022/07/09 11:53:57;;;;;;;3.08;0.50;;;23.80;93.20;;;;;;5064093;28;20929;-74
2022/07/09 11:56:22;;;;;;;4.45;0.68;;;23.80;93.30;;;;;;5059968;28;20040;-74
2022/07/09 11:58:51;;;;;;;7.22;0.45;;;23.70;92.40;;;;;;5063399;28;20048;-74
2022/07/09 12:01:17;;;;;;;;;;;23.70;91.00;;;;;;5068358;28;20033;-74
2022/07/09 12:03:49;;;;;;;3.85;0.30;;;23.80;92.20;;;;;;5055205;28;19928;-74
2022/07/09 12:06:16;;;;;;;4.60;1.17;;;24.30;91.60;;;;;;5054379;28;20052;-74
2022/07/09 12:08:42;;;;;;;;;;;24.40;91.60;;;;;;5059027;28;20047;-74
2022/07/09 12:11:07;;;;;;;2.50;0.38;;;24.60;91.10;;;;;;5056762;28;19921;-74
2022/07/09 12:13:33;;;;;;;4.33;0.50;;;24.80;90.70;;;;;;5038540;28;20433;-74
2022/07/09 12:15:58;;;;;;;4.35;0.40;;;24.90;90.40;;;;;;5065691;28;20036;-75
2022/07/09 12:18:24;;;;;;;5.00;0.60;;;24.90;89.80;;;;;;5064581;28;20434;-74
2022/07/09 12:20:50;;;;;;;3.90;1.02;;;24.80;89.30;;;;;;5056393;28;20043;-74
2022/07/09 12:23:16;;;;;;;12.70;2.17;;;24.70;88.00;;;;;;5058038;28;20414;-74
2022/07/09 12:25:41;;;;;;;;;;;24.70;89.90;;;;;;5060159;28;20044;-74
2022/07/09 12:28:07;;;;;;;;;;;24.60;86.00;;;;;;5061082;28;20011;-75
2022/07/09 12:30:33;;;;;;;8.00;1.10;;;24.70;88.20;;;;;;5042805;28;19931;-74
2022/07/09 12:32:58;;;;;;;2.83;0.40;;;24.70;86.70;;;;;;5062657;28;20047;-74
2022/07/09 12:35:25;;;;;;;;;;;24.80;86.70;;;;;;5059164;28;20150;-75
2022/07/09 12:37:51;;;;;;;3.22;0.40;;;25.10;87.30;;;;;;5061537;28;20595;-75
2022/07/09 12:40:17;;;;;;;3.92;0.40;;;25.10;85.00;;;;;;5065576;28;20052;-74
2022/07/09 12:42:43;;;;;;;3.78;0.47;;;25.30;85.90;;;;;;5060146;28;20044;-75
2022/07/09 12:45:09;;;;;;;4.13;0.40;;;25.40;83.80;;;;;;5058275;28;20423;-75
2022/07/09 12:47:34;;;;;;;3.30;0.43;;;25.40;83.30;;;;;;5040715;28;20758;-74
2022/07/09 12:50:03;;;;;;;3.50;0.73;;;25.50;81.70;;;;;;5066453;28;20051;-74
2022/07/09 12:52:31;;;;;;;;;;;25.40;79.70;;;;;;5057774;28;20163;-74
2022/07/09 12:54:56;;;;;;;;;;;25.30;77.10;;;;;;5061102;28;19921;-75
2022/07/09 12:57:22;;;;;;;;;;;25.20;77.70;;;;;;5054843;28;19935;-75
2022/07/09 12:59:47;;;;;;;3.45;0.35;;;25.00;76.20;;;;;;5052715;28;20302;-74
2022/07/09 13:02:13;;;;;;;;;;;25.00;78.80;;;;;;5060860;28;20048;-74
2022/07/09 13:04:38;;;;;;;8.23;0.40;;;25.10;77.00;;;;;;5060792;28;20284;-74
2022/07/09 13:07:04;;;;;;;;;;;25.20;77.00;;;;;;5054997;28;20082;-74
2022/07/09 13:09:30;;;;;;;3.22;0.32;;;25.50;78.50;;;;;;5060673;28;19932;-75
2022/07/09 13:11:55;;;;;;;2.45;0.70;;;25.80;77.60;;;;;;5061970;28;20446;-74
2022/07/09 13:14:21;;;;;;;3.50;0.50;;;26.10;77.90;;;;;;5048436;28;20045;-75
2022/07/09 13:16:47;;;;;;;1.77;0.30;;;26.20;75.80;;;;;;5065696;28;20041;-74
2022/07/09 13:19:12;;;;;;;3.10;0.47;;;26.40;75.80;;;;;;5060902;28;20077;-74
2022/07/09 13:21:38;;;;;;;2.83;0.50;;;26.50;76.50;;;;;;5065157;28;20413;-75
2022/07/09 13:24:04;;;;;;;3.43;0.30;;;26.20;74.30;;;;;;5055170;28;20423;-74
2022/07/09 13:26:29;;;;;;;;;;;26.10;76.00;;;;;;5067250;28;20041;-74
2022/07/09 13:28:55;;;;;;;;;;;26.10;73.80;;;;;;5071199;28;20007;-75
2022/07/09 13:31:21;;;;;;;;;;;25.80;72.60;;;;;;5061599;28;19924;-75
2022/07/09 13:33:47;;;;;;;;;;;25.60;73.80;;;;;;5072782;28;19924;-75
2022/07/09 13:36:12;;;;;;;;;;;25.40;75.00;;;;;;5071169;28;19973;-74
2022/07/09 13:38:38;;;;;;;2.65;0.25;;;25.50;74.00;;;;;;5067360;28;19966;-74
2022/07/09 13:41:04;;;;;;;3.65;0.30;;;25.60;72.50;;;;;;5071215;28;20056;-75
2022/07/09 13:43:29;;;;;;;3.08;0.32;;;25.50;73.10;;;;;;5059101;28;20033;-75
2022/07/09 13:45:56;;;;;;;;;;;25.50;72.40;;;;;;5037875;28;20126;-75
2022/07/09 13:48:22;;;;;;;;;;;25.40;72.60;;;;;;5059645;28;19921;-76
2022/07/09 13:50:47;;;;;;;;;;;25.10;71.70;;;;;;5051227;28;20402;-76
2022/07/09 13:53:13;;;;;;;;;;;24.70;71.70;;;;;;5059521;28;19932;-76